Calling Lake, Canada
Current Conditions -  °F | °C
As of 4:00 PM on Wednesday 22 Oct 2014 (Local Time) from CYZH Reporting Station
Overcast Overcast  
Wind Chill: 54°   Ceiling: 11000
Heat Index: 54°   Visibility: 9mi
Dew Point: 36°   Wind: 9mph
Humidity: 51%   Direction: 90°E
Pressure: 29.55"   Gusts: NA
Location:  55.25°N, 113.2°W
Report Text: CYZH 222200Z AUTO 09008KT 9SM SCT090 OVC110 12/02 A2955 RMK SLP023 DENSITY ALT 2300FT
Loading
Personal Weather Stations






























Interactive Weather Map
Tropical Storm Tracking
New forecast layout! Learn more

10-Day Weather Forecast

Advertisements
Track Severe Weather on mobile